sensor_id;sensor_type;location;lat;lon;timestamp;pressure;altitude;pressure_sealevel;temperature;humidity
47522;BME280;32291;52.010;4.446;2023-07-30T00:00:14;77332.78;;;-144.67;100.00
47522;BME280;32291;52.010;4.446;2023-07-30T00:01:17;77317.81;;;-144.67;100.00
47522;BME280;32291;52.010;4.446;2023-07-30T00:02:20;77319.94;;;-144.67;100.00
47522;BME280;32291;52.010;4.446;2023-07-30T00:03:22;77332.78;;;-144.67;100.00
47522;BME280;32291;52.010;4.446;2023-07-30T00:04:24;77328.50;;;-144.67;100.00
47522;BME280;32291;52.010;4.446;2023-07-30T00:05:31;77324.22;;;-144.67;100.00
47522;BME280;32291;52.010;4.446;2023-07-30T00:06:34;77315.66;;;-144.67;100.00
47522;BME280;32291;52.010;4.446;2023-07-30T00:07:36;77322.09;;;-144.67;100.00
47522;BME280;32291;52.010;4.446;2023-07-30T00:08:38;77315.66;;;-144.67;100.00
47522;BME280;32291;52.010;4.446;2023-07-30T00:09:45;77317.81;;;-144.67;100.00
47522;BME280;32291;52.010;4.446;2023-07-30T00:10:52;77319.94;;;-144.67;100.00
47522;BME280;32291;52.010;4.446;2023-07-30T00:11:54;77311.38;;;-144.67;100.00
47522;BME280;32291;52.010;4.446;2023-07-30T00:12:56;77311.38;;;-144.67;100.00
47522;BME280;32291;52.010;4.446;2023-07-30T00:14:04;77311.38;;;-144.67;100.00
47522;BME280;32291;52.010;4.446;2023-07-30T00:15:11;77311.38;;;-144.67;100.00
47522;BME280;32291;52.010;4.446;2023-07-30T00:16:20;77298.53;;;-144.67;100.00
47522;BME280;32291;52.010;4.446;2023-07-30T00:17:27;77296.41;;;-144.67;100.00
47522;BME280;32291;52.010;4.446;2023-07-30T00:18:34;77289.97;;;-144.67;100.00
47522;BME280;32291;52.010;4.446;2023-07-30T00:19:37;77289.97;;;-144.67;100.00
47522;BME280;32291;52.010;4.446;2023-07-30T00:20:43;77294.25;;;-144.67;100.00
47522;BME280;32291;52.010;4.446;2023-07-30T00:21:50;77300.69;;;-144.67;100.00
47522;BME280;32291;52.010;4.446;2023-07-30T00:22:52;77302.81;;;-144.67;100.00
47522;BME280;32291;52.010;4.446;2023-07-30T00:23:54;77304.97;;;-144.67;100.00
47522;BME280;32291;52.010;4.446;2023-07-30T00:24:57;77296.41;;;-144.67;100.00
47522;BME280;32291;52.010;4.446;2023-07-30T00:26:03;77298.53;;;-144.67;100.00
47522;BME280;32291;52.010;4.446;2023-07-30T00:27:10;77296.41;;;-144.67;100.00
47522;BME280;32291;52.010;4.446;2023-07-30T00:28:17;77302.81;;;-144.67;100.00
47522;BME280;32291;52.010;4.446;2023-07-30T00:29:19;77302.81;;;-144.67;100.00
47522;BME280;32291;52.010;4.446;2023-07-30T00:30:26;77317.81;;;-144.67;100.00
47522;BME280;32291;52.010;4.446;2023-07-30T00:31:33;77309.25;;;-144.67;100.00
47522;BME280;32291;52.010;4.446;2023-07-30T00:32:35;77315.66;;;-144.67;100.00
47522;BME280;32291;52.010;4.446;2023-07-30T00:33:37;77315.66;;;-144.67;100.00
47522;BME280;32291;52.010;4.446;2023-07-30T00:34:39;77304.97;;;-144.67;100.00
47522;BME280;32291;52.010;4.446;2023-07-30T00:35:42;77315.66;;;-144.67;100.00
47522;BME280;32291;52.010;4.446;2023-07-30T00:36:44;77319.94;;;-144.67;100.00
47522;BME280;32291;52.010;4.446;2023-07-30T00:37:51;77313.53;;;-144.67;100.00
47522;BME280;32291;52.010;4.446;2023-07-30T00:38:53;77307.09;;;-144.67;100.00
47522;BME280;32291;52.010;4.446;2023-07-30T00:40:00;77315.66;;;-144.67;100.00
47522;BME280;32291;52.010;4.446;2023-07-30T00:41:06;77315.66;;;-144.67;100.00
47522;BME280;32291;52.010;4.446;2023-07-30T00:42:09;77307.09;;;-144.67;100.00
47522;BME280;32291;52.010;4.446;2023-07-30T00:43:11;77304.97;;;-144.67;100.00
47522;BME280;32291;52.010;4.446;2023-07-30T00:44:13;77309.25;;;-144.67;100.00
47522;BME280;32291;52.010;4.446;2023-07-30T00:45:16;77304.97;;;-144.67;100.00
47522;BME280;32291;52.010;4.446;2023-07-30T00:46:18;77309.25;;;-144.67;100.00
47522;BME280;32291;52.010;4.446;2023-07-30T00:47:26;77311.38;;;-144.67;100.00
47522;BME280;32291;52.010;4.446;2023-07-30T00:48:33;77309.25;;;-144.67;100.00
47522;BME280;32291;52.010;4.446;2023-07-30T00:49:40;77311.38;;;-144.67;100.00
47522;BME280;32291;52.010;4.446;2023-07-30T00:50:47;77311.38;;;-144.67;100.00
47522;BME280;32291;52.010;4.446;2023-07-30T00:51:52;77296.41;;;-144.67;100.00
47522;BME280;32291;52.010;4.446;2023-07-30T00:52:55;77302.81;;;-144.67;100.00
47522;BME280;32291;52.010;4.446;2023-07-30T00:54:02;77302.81;;;-144.67;100.00
47522;BME280;32291;52.010;4.446;2023-07-30T00:55:06;77307.09;;;-144.67;100.00
47522;BME280;32291;52.010;4.446;2023-07-30T00:56:09;77307.09;;;-144.67;100.00
47522;BME280;32291;52.010;4.446;2023-07-30T00:57:12;77300.69;;;-144.67;100.00
47522;BME280;32291;52.010;4.446;2023-07-30T00:58:15;77300.69;;;-144.67;100.00
47522;BME280;32291;52.010;4.446;2023-07-30T00:59:20;77289.97;;;-144.67;100.00
47522;BME280;32291;52.010;4.446;2023-07-30T01:00:23;77287.84;;;-144.67;100.00
47522;BME280;32291;52.010;4.446;2023-07-30T01:01:27;77292.13;;;-144.67;100.00
47522;BME280;32291;52.010;4.446;2023-07-30T01:02:31;77287.84;;;-144.67;100.00
47522;BME280;32291;52.010;4.446;2023-07-30T01:03:39;77294.25;;;-144.67;100.00
47522;BME280;32291;52.010;4.446;2023-07-30T01:04:46;77289.97;;;-144.67;100.00
47522;BME280;32291;52.010;4.446;2023-07-30T01:05:55;77283.56;;;-144.67;100.00
47522;BME280;32291;52.010;4.446;2023-07-30T01:06:58;77285.69;;;-144.67;100.00
47522;BME280;32291;52.010;4.446;2023-07-30T01:08:00;77281.41;;;-144.67;100.00
47522;BME280;32291;52.010;4.446;2023-07-30T01:09:07;77298.53;;;-144.67;100.00
47522;BME280;32291;52.010;4.446;2023-07-30T01:10:10;77298.53;;;-144.67;100.00
47522;BME280;32291;52.010;4.446;2023-07-30T01:11:18;77294.25;;;-144.67;100.00
47522;BME280;32291;52.010;4.446;2023-07-30T01:12:22;77296.41;;;-144.67;100.00
47522;BME280;32291;52.010;4.446;2023-07-30T01:13:25;77285.69;;;-144.67;100.00
47522;BME280;32291;52.010;4.446;2023-07-30T01:14:28;77287.84;;;-144.67;100.00
47522;BME280;32291;52.010;4.446;2023-07-30T01:15:32;77285.69;;;-144.67;100.00
47522;BME280;32291;52.010;4.446;2023-07-30T01:16:34;77296.41;;;-144.67;100.00
47522;BME280;32291;52.010;4.446;2023-07-30T01:17:37;77296.41;;;-144.67;100.00
47522;BME280;32291;52.010;4.446;2023-07-30T01:18:39;77307.09;;;-144.67;100.00
47522;BME280;32291;52.010;4.446;2023-07-30T01:19:42;77296.41;;;-144.67;100.00
47522;BME280;32291;52.010;4.446;2023-07-30T01:20:44;77287.84;;;-144.67;100.00
47522;BME280;32291;52.010;4.446;2023-07-30T01:21:46;77298.53;;;-144.67;100.00
47522;BME280;32291;52.010;4.446;2023-07-30T01:22:48;77294.25;;;-144.67;100.00
47522;BME280;32291;52.010;4.446;2023-07-30T01:23:51;77304.97;;;-144.67;100.00
47522;BME280;32291;52.010;4.446;2023-07-30T01:24:53;77294.25;;;-144.67;100.00
47522;BME280;32291;52.010;4.446;2023-07-30T01:26:12;77289.97;;;-144.67;100.00
47522;BME280;32291;52.010;4.446;2023-07-30T01:27:29;77302.81;;;-144.67;100.00
47522;BME280;32291;52.010;4.446;2023-07-30T01:28:43;77298.53;;;-144.67;100.00
47522;BME280;32291;52.010;4.446;2023-07-30T01:31:06;77294.25;;;-144.67;100.00
47522;BME280;32291;52.010;4.446;2023-07-30T01:32:12;77285.69;;;-144.67;100.00
47522;BME280;32291;52.010;4.446;2023-07-30T01:33:16;77283.56;;;-144.67;100.00
47522;BME280;32291;52.010;4.446;2023-07-30T01:34:27;77283.56;;;-144.67;100.00
47522;BME280;32291;52.010;4.446;2023-07-30T01:35:36;77287.84;;;-144.67;100.00
47522;BME280;32291;52.010;4.446;2023-07-30T01:36:45;77289.97;;;-144.67;100.00
47522;BME280;32291;52.010;4.446;2023-07-30T01:37:51;77289.97;;;-144.67;100.00
47522;BME280;32291;52.010;4.446;2023-07-30T01:38:59;77289.97;;;-144.67;100.00
47522;BME280;32291;52.010;4.446;2023-07-30T01:40:02;77289.97;;;-144.67;100.00
47522;BME280;32291;52.010;4.446;2023-07-30T01:41:10;77296.41;;;-144.67;100.00
47522;BME280;32291;52.010;4.446;2023-07-30T01:42:17;77289.97;;;-144.67;100.00
47522;BME280;32291;52.010;4.446;2023-07-30T01:43:20;77302.81;;;-144.67;100.00
47522;BME280;32291;52.010;4.446;2023-07-30T01:44:22;77289.97;;;-144.67;100.00
47522;BME280;32291;52.010;4.446;2023-07-30T01:45:29;77298.53;;;-144.67;100.00
47522;BME280;32291;52.010;4.446;2023-07-30T01:46:31;77298.53;;;-144.67;100.00
47522;BME280;32291;52.010;4.446;2023-07-30T01:47:33;77298.53;;;-144.67;100.00
47522;BME280;32291;52.010;4.446;2023-07-30T01:48:35;77296.41;;;-144.67;100.00
47522;BME280;32291;52.010;4.446;2023-07-30T01:49:42;77296.41;;;-144.67;100.00
47522;BME280;32291;52.010;4.446;2023-07-30T01:50:44;77298.53;;;-144.67;100.00
47522;BME280;32291;52.010;4.446;2023-07-30T01:51:49;77296.41;;;-144.67;100.00
47522;BME280;32291;52.010;4.446;2023-07-30T01:52:51;77289.97;;;-144.67;100.00
47522;BME280;32291;52.010;4.446;2023-07-30T01:53:58;77302.81;;;-144.67;100.00
47522;BME280;32291;52.010;4.446;2023-07-30T01:55:00;77302.81;;;-144.67;100.00
47522;BME280;32291;52.010;4.446;2023-07-30T01:56:07;77307.09;;;-144.67;100.00
47522;BME280;32291;52.010;4.446;2023-07-30T01:57:10;77307.09;;;-144.67;100.00
47522;BME280;32291;52.010;4.446;2023-07-30T01:58:17;77302.81;;;-144.67;100.00
47522;BME280;32291;52.010;4.446;2023-07-30T01:59:19;77315.66;;;-144.67;100.00
47522;BME280;32291;52.010;4.446;2023-07-30T02:00:22;77307.09;;;-144.67;100.00
47522;BME280;32291;52.010;4.446;2023-07-30T02:01:24;77315.66;;;-144.67;100.00
47522;BME280;32291;52.010;4.446;2023-07-30T02:02:31;77307.09;;;-144.67;100.00
47522;BME280;32291;52.010;4.446;2023-07-30T02:03:33;77317.81;;;-144.67;100.00
47522;BME280;32291;52.010;4.446;2023-07-30T02:04:40;77315.66;;;-144.67;100.00
47522;BME280;32291;52.010;4.446;2023-07-30T02:05:47;77311.38;;;-144.67;100.00
47522;BME280;32291;52.010;4.446;2023-07-30T02:06:49;77313.53;;;-144.67;100.00
47522;BME280;32291;52.010;4.446;2023-07-30T02:07:51;77304.97;;;-144.67;100.00
47522;BME280;32291;52.010;4.446;2023-07-30T02:08:58;77298.53;;;-144.67;100.00
47522;BME280;32291;52.010;4.446;2023-07-30T02:10:00;77300.69;;;-144.67;100.00
47522;BME280;32291;52.010;4.446;2023-07-30T02:11:08;77307.09;;;-144.67;100.00
47522;BME280;32291;52.010;4.446;2023-07-30T02:12:10;77307.09;;;-144.67;100.00
47522;BME280;32291;52.010;4.446;2023-07-30T02:13:14;77309.25;;;-144.67;100.00
47522;BME280;32291;52.010;4.446;2023-07-30T02:14:17;77309.25;;;-144.67;100.00
47522;BME280;32291;52.010;4.446;2023-07-30T02:15:20;77307.09;;;-144.67;100.00
47522;BME280;32291;52.010;4.446;2023-07-30T02:16:27;77300.69;;;-144.67;100.00
47522;BME280;32291;52.010;4.446;2023-07-30T02:17:34;77302.81;;;-144.67;100.00
47522;BME280;32291;52.010;4.446;2023-07-30T02:18:41;77307.09;;;-144.67;100.00
47522;BME280;32291;52.010;4.446;2023-07-30T02:19:48;77298.53;;;-144.67;100.00
47522;BME280;32291;52.010;4.446;2023-07-30T02:20:54;77296.41;;;-144.67;100.00
47522;BME280;32291;52.010;4.446;2023-07-30T02:22:01;77300.69;;;-144.67;100.00
47522;BME280;32291;52.010;4.446;2023-07-30T02:23:03;77304.97;;;-144.67;100.00
47522;BME280;32291;52.010;4.446;2023-07-30T02:24:10;77298.53;;;-144.67;100.00
47522;BME280;32291;52.010;4.446;2023-07-30T02:25:13;77298.53;;;-144.67;100.00
47522;BME280;32291;52.010;4.446;2023-07-30T02:26:16;77289.97;;;-144.67;100.00
47522;BME280;32291;52.010;4.446;2023-07-30T02:27:23;77294.25;;;-144.67;100.00
47522;BME280;32291;52.010;4.446;2023-07-30T02:28:25;77289.97;;;-144.67;100.00
47522;BME280;32291;52.010;4.446;2023-07-30T02:29:28;77281.41;;;-144.67;100.00
47522;BME280;32291;52.010;4.446;2023-07-30T02:30:34;77289.97;;;-144.67;100.00
47522;BME280;32291;52.010;4.446;2023-07-30T02:31:37;77289.97;;;-144.67;100.00
47522;BME280;32291;52.010;4.446;2023-07-30T02:32:44;77289.97;;;-144.67;100.00
47522;BME280;32291;52.010;4.446;2023-07-30T02:33:50;77289.97;;;-144.67;100.00
47522;BME280;32291;52.010;4.446;2023-07-30T02:34:57;77294.25;;;-144.67;100.00
47522;BME280;32291;52.010;4.446;2023-07-30T02:36:04;77289.97;;;-144.67;100.00
47522;BME280;32291;52.010;4.446;2023-07-30T02:37:06;77294.25;;;-144.67;100.00
47522;BME280;32291;52.010;4.446;2023-07-30T02:38:13;77289.97;;;-144.67;100.00
47522;BME280;32291;52.010;4.446;2023-07-30T02:39:20;77289.97;;;-144.67;100.00
47522;BME280;32291;52.010;4.446;2023-07-30T02:40:22;77283.56;;;-144.67;100.00
47522;BME280;32291;52.010;4.446;2023-07-30T02:41:24;77289.97;;;-144.67;100.00
47522;BME280;32291;52.010;4.446;2023-07-30T02:42:26;77287.84;;;-144.67;100.00
47522;BME280;32291;52.010;4.446;2023-07-30T02:43:28;77277.13;;;-144.67;100.00
47522;BME280;32291;52.010;4.446;2023-07-30T02:44:36;77285.69;;;-144.67;100.00
47522;BME280;32291;52.010;4.446;2023-07-30T02:45:38;77277.13;;;-144.67;100.00
47522;BME280;32291;52.010;4.446;2023-07-30T02:46:45;77281.41;;;-144.67;100.00
47522;BME280;32291;52.010;4.446;2023-07-30T02:47:47;77277.13;;;-144.67;100.00
47522;BME280;32291;52.010;4.446;2023-07-30T02:48:50;77272.84;;;-144.67;100.00
47522;BME280;32291;52.010;4.446;2023-07-30T02:49:56;77277.13;;;-144.67;100.00
47522;BME280;32291;52.010;4.446;2023-07-30T02:51:03;77277.13;;;-144.67;100.00
47522;BME280;32291;52.010;4.446;2023-07-30T02:52:10;77272.84;;;-144.67;100.00
47522;BME280;32291;52.010;4.446;2023-07-30T02:53:17;77277.13;;;-144.67;100.00
47522;BME280;32291;52.010;4.446;2023-07-30T02:54:19;77283.56;;;-144.67;100.00
47522;BME280;32291;52.010;4.446;2023-07-30T02:55:24;77275.00;;;-144.67;100.00
47522;BME280;32291;52.010;4.446;2023-07-30T02:56:26;77283.56;;;-144.67;100.00
47522;BME280;32291;52.010;4.446;2023-07-30T02:57:33;77275.00;;;-144.67;100.00
47522;BME280;32291;52.010;4.446;2023-07-30T02:58:35;77270.72;;;-144.67;100.00
47522;BME280;32291;52.010;4.446;2023-07-30T02:59:42;77272.84;;;-144.67;100.00
47522;BME280;32291;52.010;4.446;2023-07-30T03:00:49;77270.72;;;-144.67;100.00
47522;BME280;32291;52.010;4.446;2023-07-30T03:01:56;77264.28;;;-144.67;100.00
47522;BME280;32291;52.010;4.446;2023-07-30T03:03:04;77266.44;;;-144.67;100.00
47522;BME280;32291;52.010;4.446;2023-07-30T03:04:11;77266.44;;;-144.67;100.00
47522;BME280;32291;52.010;4.446;2023-07-30T03:05:17;77270.72;;;-144.67;100.00
47522;BME280;32291;52.010;4.446;2023-07-30T03:06:20;77275.00;;;-144.67;100.00
47522;BME280;32291;52.010;4.446;2023-07-30T03:07:27;77264.28;;;-144.67;100.00
47522;BME280;32291;52.010;4.446;2023-07-30T03:08:29;77268.56;;;-144.67;100.00
47522;BME280;32291;52.010;4.446;2023-07-30T03:09:32;77266.44;;;-144.67;100.00
47522;BME280;32291;52.010;4.446;2023-07-30T03:10:36;77264.28;;;-144.67;100.00
47522;BME280;32291;52.010;4.446;2023-07-30T03:11:44;77264.28;;;-144.67;100.00
47522;BME280;32291;52.010;4.446;2023-07-30T03:12:50;77264.28;;;-144.67;100.00
47522;BME280;32291;52.010;4.446;2023-07-30T03:13:52;77266.44;;;-144.67;100.00
47522;BME280;32291;52.010;4.446;2023-07-30T03:14:55;77268.56;;;-144.67;100.00
47522;BME280;32291;52.010;4.446;2023-07-30T03:15:57;77277.13;;;-144.67;100.00
47522;BME280;32291;52.010;4.446;2023-07-30T03:16:59;77277.13;;;-144.67;100.00
47522;BME280;32291;52.010;4.446;2023-07-30T03:18:06;77268.56;;;-144.67;100.00
47522;BME280;32291;52.010;4.446;2023-07-30T03:19:13;77268.56;;;-144.67;100.00
47522;BME280;32291;52.010;4.446;2023-07-30T03:20:20;77266.44;;;-144.67;100.00
47522;BME280;32291;52.010;4.446;2023-07-30T03:21:22;77270.72;;;-144.67;100.00
47522;BME280;32291;52.010;4.446;2023-07-30T03:22:29;77264.28;;;-144.67;100.00
47522;BME280;32291;52.010;4.446;2023-07-30T03:23:37;77264.28;;;-144.67;100.00
47522;BME280;32291;52.010;4.446;2023-07-30T03:24:39;77260.00;;;-144.67;100.00
47522;BME280;32291;52.010;4.446;2023-07-30T03:25:46;77264.28;;;-144.67;100.00
47522;BME280;32291;52.010;4.446;2023-07-30T03:26:48;77268.56;;;-144.67;100.00
47522;BME280;32291;52.010;4.446;2023-07-30T03:27:55;77266.44;;;-144.67;100.00
47522;BME280;32291;52.010;4.446;2023-07-30T03:28:57;77268.56;;;-144.67;100.00
47522;BME280;32291;52.010;4.446;2023-07-30T03:29:59;77272.84;;;-144.67;100.00
47522;BME280;32291;52.010;4.446;2023-07-30T03:31:02;77260.00;;;-144.67;100.00
47522;BME280;32291;52.010;4.446;2023-07-30T03:32:04;77260.00;;;-144.67;100.00
47522;BME280;32291;52.010;4.446;2023-07-30T03:33:07;77260.00;;;-144.67;100.00
47522;BME280;32291;52.010;4.446;2023-07-30T03:34:09;77272.84;;;-144.67;100.00
47522;BME280;32291;52.010;4.446;2023-07-30T03:35:14;77277.13;;;-144.67;100.00
47522;BME280;32291;52.010;4.446;2023-07-30T03:36:24;77289.97;;;-144.67;100.00
47522;BME280;32291;52.010;4.446;2023-07-30T03:37:31;77281.41;;;-144.67;100.00
47522;BME280;32291;52.010;4.446;2023-07-30T03:38:33;77272.84;;;-144.67;100.00
47522;BME280;32291;52.010;4.446;2023-07-30T03:39:36;77272.84;;;-144.67;100.00
47522;BME280;32291;52.010;4.446;2023-07-30T03:40:43;77272.84;;;-144.67;100.00
47522;BME280;32291;52.010;4.446;2023-07-30T03:41:45;77264.28;;;-144.67;100.00
47522;BME280;32291;52.010;4.446;2023-07-30T03:42:49;77268.56;;;-144.67;100.00
47522;BME280;32291;52.010;4.446;2023-07-30T03:43:56;77272.84;;;-144.67;100.00
47522;BME280;32291;52.010;4.446;2023-07-30T03:45:03;77272.84;;;-144.67;100.00
47522;BME280;32291;52.010;4.446;2023-07-30T03:46:10;77272.84;;;-144.67;100.00
47522;BME280;32291;52.010;4.446;2023-07-30T03:47:17;77285.69;;;-144.67;100.00
47522;BME280;32291;52.010;4.446;2023-07-30T03:48:22;77277.13;;;-144.67;100.00
47522;BME280;32291;52.010;4.446;2023-07-30T03:49:24;77287.84;;;-144.67;100.00
47522;BME280;32291;52.010;4.446;2023-07-30T03:50:26;77285.69;;;-144.67;100.00
47522;BME280;32291;52.010;4.446;2023-07-30T03:51:33;77292.13;;;-144.67;100.00
47522;BME280;32291;52.010;4.446;2023-07-30T03:52:36;77277.13;;;-144.67;100.00
47522;BME280;32291;52.010;4.446;2023-07-30T03:53:38;77294.25;;;-144.67;100.00
47522;BME280;32291;52.010;4.446;2023-07-30T03:54:40;77287.84;;;-144.67;100.00
47522;BME280;32291;52.010;4.446;2023-07-30T03:55:42;77298.53;;;-144.67;100.00
47522;BME280;32291;52.010;4.446;2023-07-30T03:56:49;77300.69;;;-144.67;100.00
47522;BME280;32291;52.010;4.446;2023-07-30T03:57:51;77302.81;;;-144.67;100.00
47522;BME280;32291;52.010;4.446;2023-07-30T03:58:53;77296.41;;;-144.67;100.00
47522;BME280;32291;52.010;4.446;2023-07-30T04:00:00;77302.81;;;-144.67;100.00
47522;BME280;32291;52.010;4.446;2023-07-30T04:01:03;77298.53;;;-144.67;100.00
47522;BME280;32291;52.010;4.446;2023-07-30T04:02:05;77307.09;;;-144.67;100.00
47522;BME280;32291;52.010;4.446;2023-07-30T04:03:07;77307.09;;;-144.67;100.00
47522;BME280;32291;52.010;4.446;2023-07-30T04:04:09;77304.97;;;-144.67;100.00
47522;BME280;32291;52.010;4.446;2023-07-30T04:05:12;77304.97;;;-144.67;100.00
47522;BME280;32291;52.010;4.446;2023-07-30T04:06:14;77311.38;;;-144.67;100.00
47522;BME280;32291;52.010;4.446;2023-07-30T04:07:16;77311.38;;;-144.67;100.00
47522;BME280;32291;52.010;4.446;2023-07-30T04:08:18;77324.22;;;-144.67;100.00
47522;BME280;32291;52.010;4.446;2023-07-30T04:09:21;77322.09;;;-144.67;100.00
47522;BME280;32291;52.010;4.446;2023-07-30T04:10:28;77324.22;;;-144.67;100.00
47522;BME280;32291;52.010;4.446;2023-07-30T04:11:30;77319.94;;;-144.67;100.00
47522;BME280;32291;52.010;4.446;2023-07-30T04:12:32;77319.94;;;-144.67;100.00
47522;BME280;32291;52.010;4.446;2023-07-30T04:13:34;77319.94;;;-144.67;100.00
47522;BME280;32291;52.010;4.446;2023-07-30T04:14:41;77324.22;;;-144.67;100.00
47522;BME280;32291;52.010;4.446;2023-07-30T04:15:43;77326.38;;;-144.67;100.00
47522;BME280;32291;52.010;4.446;2023-07-30T04:16:46;77319.94;;;-144.67;100.00
47522;BME280;32291;52.010;4.446;2023-07-30T04:17:49;77317.81;;;-144.67;100.00
47522;BME280;32291;52.010;4.446;2023-07-30T04:18:56;77328.50;;;-144.67;100.00
47522;BME280;32291;52.010;4.446;2023-07-30T04:20:04;77319.94;;;-144.67;100.00
47522;BME280;32291;52.010;4.446;2023-07-30T04:21:07;77322.09;;;-144.67;100.00
47522;BME280;32291;52.010;4.446;2023-07-30T04:22:16;77319.94;;;-144.67;100.00
47522;BME280;32291;52.010;4.446;2023-07-30T04:23:18;77315.66;;;-144.67;100.00
47522;BME280;32291;52.010;4.446;2023-07-30T04:24:25;77319.94;;;-144.67;100.00
47522;BME280;32291;52.010;4.446;2023-07-30T04:25:33;77328.50;;;-144.67;100.00
47522;BME280;32291;52.010;4.446;2023-07-30T04:26:40;77322.09;;;-144.67;100.00
47522;BME280;32291;52.010;4.446;2023-07-30T04:27:42;77319.94;;;-144.67;100.00
47522;BME280;32291;52.010;4.446;2023-07-30T04:28:49;77311.38;;;-144.67;100.00
47522;BME280;32291;52.010;4.446;2023-07-30T04:29:56;77315.66;;;-144.67;100.00
47522;BME280;32291;52.010;4.446;2023-07-30T04:31:03;77304.97;;;-144.67;99.72
47522;BME280;32291;52.010;4.446;2023-07-30T04:32:10;77311.38;;;-144.67;99.15
47522;BME280;32291;52.010;4.446;2023-07-30T04:33:17;77315.66;;;-144.67;99.71
47522;BME280;32291;52.010;4.446;2023-07-30T04:34:19;77313.53;;;-144.67;99.55
47522;BME280;32291;52.010;4.446;2023-07-30T04:35:21;77309.25;;;-144.67;97.65
47522;BME280;32291;52.010;4.446;2023-07-30T04:36:23;77307.09;;;-144.67;97.46
47522;BME280;32291;52.010;4.446;2023-07-30T04:37:30;77307.09;;;-144.67;97.01
47522;BME280;32291;52.010;4.446;2023-07-30T04:38:37;77317.81;;;-144.67;97.05
47522;BME280;32291;52.010;4.446;2023-07-30T04:39:40;77311.38;;;-144.67;97.42
47522;BME280;32291;52.010;4.446;2023-07-30T04:40:42;77317.81;;;-144.67;97.11
47522;BME280;32291;52.010;4.446;2023-07-30T04:41:44;77315.66;;;-144.67;97.14
47522;BME280;32291;52.010;4.446;2023-07-30T04:42:46;77311.38;;;-144.67;96.72
47522;BME280;32291;52.010;4.446;2023-07-30T04:43:53;77317.81;;;-144.67;97.15
47522;BME280;32291;52.010;4.446;2023-07-30T04:45:00;77313.53;;;-144.67;97.20
47522;BME280;32291;52.010;4.446;2023-07-30T04:46:07;77319.94;;;-144.67;97.12
47522;BME280;32291;52.010;4.446;2023-07-30T04:47:09;77315.66;;;-144.67;97.35
47522;BME280;32291;52.010;4.446;2023-07-30T04:48:16;77319.94;;;-144.67;97.50
47522;BME280;32291;52.010;4.446;2023-07-30T04:49:23;77332.78;;;-144.67;97.90
47522;BME280;32291;52.010;4.446;2023-07-30T04:50:30;77332.78;;;-144.67;97.75
47522;BME280;32291;52.010;4.446;2023-07-30T04:51:32;77334.94;;;-144.67;97.83
47522;BME280;32291;52.010;4.446;2023-07-30T04:52:38;77328.50;;;-144.67;98.06
47522;BME280;32291;52.010;4.446;2023-07-30T04:53:41;77334.94;;;-144.67;98.04
47522;BME280;32291;52.010;4.446;2023-07-30T04:54:43;77332.78;;;-144.67;98.67
47522;BME280;32291;52.010;4.446;2023-07-30T04:55:56;77328.50;;;-144.67;98.61
47522;BME280;32291;52.010;4.446;2023-07-30T04:56:59;77328.50;;;-144.67;98.73
47522;BME280;32291;52.010;4.446;2023-07-30T04:58:01;77332.78;;;-144.67;98.42
47522;BME280;32291;52.010;4.446;2023-07-30T04:59:04;77341.34;;;-144.67;99.14
47522;BME280;32291;52.010;4.446;2023-07-30T05:00:06;77349.91;;;-144.67;99.63
47522;BME280;32291;52.010;4.446;2023-07-30T05:01:14;77339.22;;;-144.67;100.00
47522;BME280;32291;52.010;4.446;2023-07-30T05:02:21;77347.78;;;-144.67;100.00
47522;BME280;32291;52.010;4.446;2023-07-30T05:03:28;77349.91;;;-144.67;100.00
47522;BME280;32291;52.010;4.446;2023-07-30T05:04:35;77345.63;;;-144.67;100.00
47522;BME280;32291;52.010;4.446;2023-07-30T05:05:37;77345.63;;;-144.67;100.00
47522;BME280;32291;52.010;4.446;2023-07-30T05:06:39;77349.91;;;-144.67;100.00
47522;BME280;32291;52.010;4.446;2023-07-30T05:07:41;77354.19;;;-144.67;100.00
47522;BME280;32291;52.010;4.446;2023-07-30T05:08:43;77347.78;;;-144.67;100.00
47522;BME280;32291;52.010;4.446;2023-07-30T05:09:50;77349.91;;;-144.67;100.00
47522;BME280;32291;52.010;4.446;2023-07-30T05:10:57;77354.19;;;-144.67;100.00
47522;BME280;32291;52.010;4.446;2023-07-30T05:12:04;77345.63;;;-144.67;100.00
47522;BME280;32291;52.010;4.446;2023-07-30T05:13:07;77352.06;;;-144.67;100.00
47522;BME280;32291;52.010;4.446;2023-07-30T05:14:15;77356.34;;;-144.67;100.00
47522;BME280;32291;52.010;4.446;2023-07-30T05:15:22;77349.91;;;-144.67;100.00
47522;BME280;32291;52.010;4.446;2023-07-30T05:16:24;77349.91;;;-144.67;100.00
47522;BME280;32291;52.010;4.446;2023-07-30T05:17:31;77349.91;;;-144.67;100.00
47522;BME280;32291;52.010;4.446;2023-07-30T05:18:38;77354.19;;;-144.67;100.00
47522;BME280;32291;52.010;4.446;2023-07-30T05:19:40;77347.78;;;-144.67;100.00
47522;BME280;32291;52.010;4.446;2023-07-30T05:20:45;77345.63;;;-144.67;100.00
47522;BME280;32291;52.010;4.446;2023-07-30T05:21:52;77341.34;;;-144.67;100.00
47522;BME280;32291;52.010;4.446;2023-07-30T05:22:59;77345.63;;;-144.67;100.00
47522;BME280;32291;52.010;4.446;2023-07-30T05:24:07;77341.34;;;-144.67;100.00
47522;BME280;32291;52.010;4.446;2023-07-30T05:25:14;77332.78;;;-144.67;100.00
47522;BME280;32291;52.010;4.446;2023-07-30T05:26:16;77332.78;;;-144.67;100.00
47522;BME280;32291;52.010;4.446;2023-07-30T05:27:18;77337.06;;;-144.67;100.00
47522;BME280;32291;52.010;4.446;2023-07-30T05:28:20;77328.50;;;-144.67;100.00
47522;BME280;32291;52.010;4.446;2023-07-30T05:29:22;77322.09;;;-144.67;100.00
47522;BME280;32291;52.010;4.446;2023-07-30T05:30:30;77319.94;;;-144.67;100.00